Time;durP1;ratioP1;P1;durP2;ratioP2;P2;SDS_P1;SDS_P2;PMS_P1;PMS_P2;Temp;Humidity;BMP_temperature;BMP_pressure;BME280_temperature;BME280_humidity;BME280_pressure;Samples;Min_cycle;Max_cycle;Signal;HPM_P1;HPM_P2
2023/10/25 00:01:55;;;;;;;2.92;1.88;;;;;;;;;;5075019;28;20469;-84
2023/10/25 00:04:20;;;;;;;2.30;1.67;;;;;;;;;;5057156;28;20438;-84
2023/10/25 00:06:45;;;;;;;1.70;1.23;;;;;;;;;;5056809;28;20025;-84
2023/10/25 00:09:10;;;;;;;12.30;2.20;;;;;;;;;;5074867;28;20344;-84
2023/10/25 00:11:36;;;;;;;4.38;1.85;;;;;;;;;;5074665;28;20341;-84
2023/10/25 00:14:03;;;;;;;6.22;1.67;;;;;;;;;;5056774;28;20388;-84
2023/10/25 00:16:28;;;;;;;3.88;1.73;;;;;;;;;;5056491;28;20463;-84
2023/10/25 00:18:53;;;;;;;1.55;1.30;;;;;;;;;;5074417;28;20095;-83
2023/10/25 00:21:19;;;;;;;6.07;1.77;;;;;;;;;;5056635;28;20040;-84
2023/10/25 00:23:44;;;;;;;2.17;1.43;;;;;;;;;;5056590;28;20277;-84
2023/10/25 00:26:10;;;;;;;2.97;1.20;;;;;;;;;;5056487;28;20029;-84
2023/10/25 00:28:35;;;;;;;1.48;1.27;;;;;;;;;;5074408;28;20056;-83
2023/10/25 00:31:00;;;;;;;1.97;1.47;;;;;;;;;;5074456;28;20393;-83
2023/10/25 00:33:26;;;;;;;2.03;1.60;;;;;;;;;;5056040;28;20127;-84
2023/10/25 00:35:51;;;;;;;4.60;1.50;;;;;;;;;;5056429;28;20077;-83
2023/10/25 00:38:16;;;;;;;11.53;1.50;;;;;;;;;;5056403;28;20314;-84
2023/10/25 00:40:41;;;;;;;1.90;1.45;;;;;;;;;;5055108;28;20344;-84
2023/10/25 00:43:17;;;;;;;2.33;1.40;;;;;;;;;;5056351;28;20031;-84
2023/10/25 00:46:02;;;;;;;6.53;1.60;;;;;;;;;;5074124;28;20052;-84
2023/10/25 00:48:29;;;;;;;2.55;1.70;;;;;;;;;;5055689;28;20484;-83
2023/10/25 00:50:54;;;;;;;2.28;1.30;;;;;;;;;;5056058;28;20036;-84
2023/10/25 00:53:19;;;;;;;1.67;1.42;;;;;;;;;;5056107;28;20020;-84
2023/10/25 00:55:45;;;;;;;2.05;1.30;;;;;;;;;;5073941;28;20082;-84
2023/10/25 00:58:10;;;;;;;1.50;1.40;;;;;;;;;;5074009;28;20056;-84
2023/10/25 01:00:36;;;;;;;2.47;1.40;;;;;;;;;;5055750;28;20028;-84
2023/10/25 01:03:05;;;;;;;1.88;1.40;;;;;;;;;;5055723;28;20012;-84
2023/10/25 01:05:31;;;;;;;5.13;1.83;;;;;;;;;;5073528;28;20498;-84
2023/10/25 01:07:56;;;;;;;4.05;2.30;;;;;;;;;;5055982;28;20107;-84
2023/10/25 01:10:21;;;;;;;3.20;1.90;;;;;;;;;;5074198;28;20058;-84
2023/10/25 01:12:46;;;;;;;7.10;1.97;;;;;;;;;;5073500;28;20310;-84
2023/10/25 01:15:12;;;;;;;3.72;2.15;;;;;;;;;;5055702;28;20258;-83
2023/10/25 01:17:37;;;;;;;1.90;1.60;;;;;;;;;;5055437;28;20538;-84
2023/10/25 01:20:02;;;;;;;3.60;1.53;;;;;;;;;;5055611;28;20028;-84
2023/10/25 01:22:28;;;;;;;1.60;1.50;;;;;;;;;;5055663;28;20047;-84
2023/10/25 01:24:53;;;;;;;1.70;1.42;;;;;;;;;;5055477;28;20532;-84
2023/10/25 01:27:18;;;;;;;3.35;1.40;;;;;;;;;;5055068;28;20032;-84
2023/10/25 01:29:43;;;;;;;2.70;1.60;;;;;;;;;;5055297;28;20032;-84
2023/10/25 01:32:09;;;;;;;2.17;1.30;;;;;;;;;;5055404;28;20319;-84
2023/10/25 01:34:34;;;;;;;2.22;1.48;;;;;;;;;;5055341;28;20253;-84
2023/10/25 01:36:59;;;;;;;2.57;1.50;;;;;;;;;;5055099;28;20101;-84
2023/10/25 01:39:25;;;;;;;2.20;1.63;;;;;;;;;;5054828;28;20415;-84
2023/10/25 01:41:50;;;;;;;2.00;1.30;;;;;;;;;;5055215;28;20687;-84
2023/10/25 01:44:15;;;;;;;4.50;1.50;;;;;;;;;;5073294;28;20808;-83
2023/10/25 01:46:40;;;;;;;1.77;1.40;;;;;;;;;;5072950;28;20025;-84
2023/10/25 01:49:05;;;;;;;5.70;1.80;;;;;;;;;;5054852;28;20356;-83
2023/10/25 01:51:31;;;;;;;2.77;1.67;;;;;;;;;;5054888;28;20021;-83
2023/10/25 01:53:56;;;;;;;4.95;1.40;;;;;;;;;;5072569;28;20324;-84
2023/10/25 01:56:21;;;;;;;4.63;1.53;;;;;;;;;;5055112;28;20024;-84
2023/10/25 01:58:46;;;;;;;4.93;2.70;;;;;;;;;;5054778;28;20367;-83
2023/10/25 02:01:12;;;;;;;1.70;1.20;;;;;;;;;;5054952;28;20472;-84
2023/10/25 02:03:37;;;;;;;5.40;1.30;;;;;;;;;;5054969;28;20766;-83
2023/10/25 02:06:15;;;;;;;1.67;1.00;;;;;;;;;;5072796;28;20031;-83
2023/10/25 02:08:41;;;;;;;9.95;1.38;;;;;;;;;;5072818;28;20012;-83
2023/10/25 02:11:06;;;;;;;10.02;1.60;;;;;;;;;;5054698;28;20020;-83
2023/10/25 02:13:32;;;;;;;4.55;1.40;;;;;;;;;;5054877;28;20376;-83
2023/10/25 02:15:57;;;;;;;1.38;1.02;;;;;;;;;;5054605;28;20017;-83
2023/10/25 02:18:22;;;;;;;9.35;1.30;;;;;;;;;;5054802;28;20151;-83
2023/10/25 02:20:47;;;;;;;5.17;1.43;;;;;;;;;;5054822;28;20016;-84
2023/10/25 02:23:13;;;;;;;4.50;1.10;;;;;;;;;;5054125;28;20289;-83
2023/10/25 02:25:38;;;;;;;1.47;1.07;;;;;;;;;;5054620;28;20292;-83
2023/10/25 02:28:03;;;;;;;1.77;1.10;;;;;;;;;;5072199;28;20017;-83
2023/10/25 02:30:28;;;;;;;9.35;1.23;;;;;;;;;;5054689;28;20253;-83
2023/10/25 02:32:54;;;;;;;13.70;1.40;;;;;;;;;;5054481;28;20376;-83
2023/10/25 02:35:19;;;;;;;1.27;1.13;;;;;;;;;;5054699;28;20590;-84
2023/10/25 02:37:44;;;;;;;1.38;1.00;;;;;;;;;;5054423;28;20024;-83
2023/10/25 02:40:09;;;;;;;9.30;1.10;;;;;;;;;;5054351;28;20025;-83
2023/10/25 02:42:35;;;;;;;1.30;1.02;;;;;;;;;;5054503;28;20311;-83
2023/10/25 02:45:00;;;;;;;1.52;1.00;;;;;;;;;;5037774;28;20392;-83
2023/10/25 02:47:26;;;;;;;1.02;0.80;;;;;;;;;;5054371;28;20388;-83
2023/10/25 02:49:51;;;;;;;0.70;0.70;;;;;;;;;;5054490;28;20017;-83
2023/10/25 02:52:16;;;;;;;1.90;0.87;;;;;;;;;;5072010;28;20108;-84
2023/10/25 02:54:41;;;;;;;2.07;1.10;;;;;;;;;;5072613;28;20281;-83
2023/10/25 02:57:07;;;;;;;1.10;0.80;;;;;;;;;;5054457;28;20181;-83
2023/10/25 02:59:32;;;;;;;8.07;0.80;;;;;;;;;;5054245;28;20731;-83
2023/10/25 03:01:57;;;;;;;6.87;0.90;;;;;;;;;;5072253;28;20020;-83
2023/10/25 03:04:22;;;;;;;0.90;0.80;;;;;;;;;;5055684;28;20257;-83
2023/10/25 03:06:47;;;;;;;4.87;1.10;;;;;;;;;;5058139;28;20270;-83
2023/10/25 03:09:13;;;;;;;4.68;1.88;;;;;;;;;;5057924;28;20016;-83
2023/10/25 03:11:38;;;;;;;2.42;1.40;;;;;;;;;;5058178;28;20107;-83
2023/10/25 03:14:03;;;;;;;3.70;1.70;;;;;;;;;;5075682;28;20020;-83
2023/10/25 03:16:28;;;;;;;6.20;1.88;;;;;;;;;;5058128;28;20761;-83
2023/10/25 03:18:54;;;;;;;5.40;2.57;;;;;;;;;;5057981;28;20021;-83
2023/10/25 03:21:19;;;;;;;3.50;1.80;;;;;;;;;;5057683;28;20028;-84
2023/10/25 03:23:44;;;;;;;4.53;1.20;;;;;;;;;;5075682;28;20523;-83
2023/10/25 03:26:09;;;;;;;2.70;1.33;;;;;;;;;;5057621;28;20036;-83
2023/10/25 03:28:35;;;;;;;2.28;1.38;;;;;;;;;;5057657;28;20257;-83
2023/10/25 03:31:04;;;;;;;6.78;1.88;;;;;;;;;;5075613;28;20044;-83
2023/10/25 03:33:29;;;;;;;1.70;1.17;;;;;;;;;;5066473;28;20027;-83
2023/10/25 03:35:54;;;;;;;1.73;1.37;;;;;;;;;;5075522;28;20130;-83
2023/10/25 03:38:20;;;;;;;2.15;1.40;;;;;;;;;;5057320;28;20663;-83
2023/10/25 03:40:46;;;;;;;2.13;1.40;;;;;;;;;;5075528;28;20417;-83
2023/10/25 03:43:11;;;;;;;1.92;1.30;;;;;;;;;;5075350;28;20025;-83
2023/10/25 03:45:36;;;;;;;1.50;1.20;;;;;;;;;;5057360;28;20024;-83
2023/10/25 03:48:01;;;;;;;2.67;1.50;;;;;;;;;;5057274;28;20281;-83
2023/10/25 03:50:27;;;;;;;2.30;1.17;;;;;;;;;;5057340;28;20358;-83
2023/10/25 03:52:52;;;;;;;3.70;1.60;;;;;;;;;;5075068;28;20283;-84
2023/10/25 03:55:17;;;;;;;2.93;1.63;;;;;;;;;;5074991;28;20269;-84
2023/10/25 03:57:42;;;;;;;2.37;1.30;;;;;;;;;;5057108;28;20253;-83
2023/10/25 04:00:09;;;;;;;1.97;1.20;;;;;;;;;;5056890;28;20029;-84
2023/10/25 04:02:34;;;;;;;1.55;1.30;;;;;;;;;;5075303;28;20260;-83
2023/10/25 04:04:59;;;;;;;2.40;1.38;;;;;;;;;;5057095;28;20029;-85
2023/10/25 04:07:25;;;;;;;10.27;2.03;;;;;;;;;;5057226;28;20012;-84
2023/10/25 04:09:50;;;;;;;9.70;3.53;;;;;;;;;;5056579;28;20261;-83
2023/10/25 04:12:15;;;;;;;21.03;8.57;;;;;;;;;;5057236;28;20020;-82
2023/10/25 04:14:46;;;;;;;14.60;6.67;;;;;;;;;;5056695;28;20020;-82
2023/10/25 04:17:12;;;;;;;12.23;5.30;;;;;;;;;;5074744;28;20103;-82
2023/10/25 04:19:37;;;;;;;13.25;6.45;;;;;;;;;;5056796;28;20059;-82
2023/10/25 04:22:03;;;;;;;13.65;5.57;;;;;;;;;;5056349;28;20047;-82
2023/10/25 04:24:28;;;;;;;8.20;3.65;;;;;;;;;;5056746;28;20029;-82
2023/10/25 04:26:53;;;;;;;7.07;2.83;;;;;;;;;;5074321;28;20032;-82
2023/10/25 04:29:19;;;;;;;7.33;3.10;;;;;;;;;;5056454;28;20308;-82
2023/10/25 04:31:44;;;;;;;6.07;2.87;;;;;;;;;;5056565;28;20253;-82
2023/10/25 04:34:09;;;;;;;6.90;3.40;;;;;;;;;;5056346;28;20024;-82
2023/10/25 04:36:34;;;;;;;5.50;3.33;;;;;;;;;;5056436;28;20503;-82
2023/10/25 04:38:59;;;;;;;6.33;3.33;;;;;;;;;;5055489;28;20269;-83
2023/10/25 04:41:25;;;;;;;8.00;4.03;;;;;;;;;;5055846;28;20253;-83
2023/10/25 04:43:50;;;;;;;15.27;4.53;;;;;;;;;;5074648;28;20388;-83
2023/10/25 04:46:15;;;;;;;10.30;4.33;;;;;;;;;;5056538;28;20028;-83
2023/10/25 04:48:41;;;;;;;6.63;3.45;;;;;;;;;;5056671;28;20241;-82
2023/10/25 04:51:07;;;;;;;15.57;5.05;;;;;;;;;;5056633;28;20019;-83
2023/10/25 04:53:32;;;;;;;10.10;4.78;;;;;;;;;;5056587;28;20016;-83
2023/10/25 04:55:58;;;;;;;12.57;4.82;;;;;;;;;;5074492;28;20047;-83
2023/10/25 04:58:25;;;;;;;11.95;5.28;;;;;;;;;;5074363;28;20055;-83
2023/10/25 05:00:51;;;;;;;8.98;3.25;;;;;;;;;;5074294;28;20460;-83
2023/10/25 05:03:16;;;;;;;8.17;3.93;;;;;;;;;;5056415;28;20111;-83
2023/10/25 05:05:41;;;;;;;9.00;4.00;;;;;;;;;;5074224;28;20028;-83
2023/10/25 05:08:07;;;;;;;11.65;3.42;;;;;;;;;;5074214;28;20016;-83
2023/10/25 05:10:33;;;;;;;12.05;2.97;;;;;;;;;;5074085;28;20012;-83
2023/10/25 05:12:58;;;;;;;7.22;2.95;;;;;;;;;;5074121;28;20473;-83
2023/10/25 05:15:25;;;;;;;9.18;4.20;;;;;;;;;;5056100;28;20020;-83
2023/10/25 05:17:50;;;;;;;12.98;7.05;;;;;;;;;;5056116;28;20056;-83
2023/10/25 05:20:16;;;;;;;21.27;8.15;;;;;;;;;;5056127;28;20055;-83
2023/10/25 05:22:42;;;;;;;16.58;8.52;;;;;;;;;;5073761;28;20041;-83
2023/10/25 05:25:08;;;;;;;10.77;6.32;;;;;;;;;;5073840;28;20031;-82
2023/10/25 05:27:34;;;;;;;20.75;9.75;;;;;;;;;;5073105;28;20020;-83
2023/10/25 05:30:03;;;;;;;22.23;10.75;;;;;;;;;;5073801;28;20550;-84
2023/10/25 05:32:29;;;;;;;24.58;12.55;;;;;;;;;;5073902;28;20090;-83
2023/10/25 05:34:56;;;;;;;29.70;12.82;;;;;;;;;;5055763;28;20015;-83
2023/10/25 05:37:21;;;;;;;26.85;12.57;;;;;;;;;;5073828;28;20017;-84
2023/10/25 05:39:46;;;;;;;27.77;11.75;;;;;;;;;;5055757;28;20453;-83
2023/10/25 05:42:15;;;;;;;27.45;11.90;;;;;;;;;;5073679;28;20027;-84
2023/10/25 05:44:41;;;;;;;26.60;12.15;;;;;;;;;;5055977;28;20021;-84
2023/10/25 05:47:06;;;;;;;23.05;11.77;;;;;;;;;;5073502;28;20097;-83
2023/10/25 05:49:31;;;;;;;25.57;13.13;;;;;;;;;;5055726;28;20533;-84
2023/10/25 05:51:57;;;;;;;24.80;12.50;;;;;;;;;;5055796;28;20253;-84
2023/10/25 05:54:22;;;;;;;31.67;12.32;;;;;;;;;;5073663;28;20095;-84
2023/10/25 05:56:47;;;;;;;26.83;14.18;;;;;;;;;;5055573;28;20107;-84
2023/10/25 05:59:13;;;;;;;25.60;12.23;;;;;;;;;;5073517;28;20073;-84
2023/10/25 06:01:38;;;;;;;26.77;13.80;;;;;;;;;;5055423;28;20020;-83
2023/10/25 06:04:04;;;;;;;27.90;14.60;;;;;;;;;;5055526;28;20016;-83
2023/10/25 06:06:29;;;;;;;29.92;13.68;;;;;;;;;;5055303;28;20026;-84
2023/10/25 06:08:55;;;;;;;28.70;13.63;;;;;;;;;;5073687;28;20016;-84
2023/10/25 06:11:20;;;;;;;24.35;13.40;;;;;;;;;;5055445;28;20021;-84
2023/10/25 06:13:45;;;;;;;25.65;13.35;;;;;;;;;;5073481;28;20024;-84
2023/10/25 06:16:11;;;;;;;24.15;13.95;;;;;;;;;;5055381;28;20024;-84
2023/10/25 06:18:37;;;;;;;27.20;14.60;;;;;;;;;;5073410;28;20023;-84
2023/10/25 06:21:02;;;;;;;27.55;15.32;;;;;;;;;;5073376;28;20020;-84
2023/10/25 06:23:27;;;;;;;26.20;15.00;;;;;;;;;;5055240;28;20098;-84
2023/10/25 06:25:53;;;;;;;28.63;15.80;;;;;;;;;;5055347;28;20091;-84
2023/10/25 06:28:18;;;;;;;23.25;12.77;;;;;;;;;;5055411;28;20020;-84
2023/10/25 06:30:45;;;;;;;27.53;15.53;;;;;;;;;;5073394;28;20012;-84
2023/10/25 06:33:11;;;;;;;25.25;14.10;;;;;;;;;;5073417;28;20786;-84
2023/10/25 06:35:36;;;;;;;23.67;14.20;;;;;;;;;;5073190;28;20028;-84
2023/10/25 06:38:01;;;;;;;22.48;14.13;;;;;;;;;;5055638;28;20299;-83
2023/10/25 06:40:27;;;;;;;21.95;13.20;;;;;;;;;;5076995;28;20017;-83
2023/10/25 06:42:52;;;;;;;24.60;13.55;;;;;;;;;;5077079;28;20029;-84
2023/10/25 06:45:17;;;;;;;22.45;12.32;;;;;;;;;;5059160;28;20369;-84
2023/10/25 06:47:43;;;;;;;23.15;14.15;;;;;;;;;;5059236;28;20503;-84
2023/10/25 06:50:12;;;;;;;27.75;13.52;;;;;;;;;;5059144;28;20023;-84
2023/10/25 06:52:37;;;;;;;19.13;11.60;;;;;;;;;;5059120;28;20491;-84
2023/10/25 06:55:03;;;;;;;25.73;12.38;;;;;;;;;;5059125;28;20021;-84
2023/10/25 06:57:28;;;;;;;18.48;11.55;;;;;;;;;;5077135;28;20023;-84
2023/10/25 06:59:53;;;;;;;19.75;12.25;;;;;;;;;;5076976;28;20023;-84
2023/10/25 07:02:18;;;;;;;22.35;11.98;;;;;;;;;;5076985;28;20026;-85
2023/10/25 07:04:46;;;;;;;18.87;10.77;;;;;;;;;;5076991;28;20066;-84
2023/10/25 07:07:11;;;;;;;18.65;11.02;;;;;;;;;;5076948;28;20277;-84
2023/10/25 07:09:36;;;;;;;17.35;11.75;;;;;;;;;;5076812;28;20431;-84
2023/10/25 07:12:02;;;;;;;18.75;11.13;;;;;;;;;;5076875;28;20044;-84
2023/10/25 07:14:27;;;;;;;17.65;10.23;;;;;;;;;;5076781;28;20020;-83
2023/10/25 07:16:52;;;;;;;15.05;10.30;;;;;;;;;;5076599;28;20021;-84
2023/10/25 07:19:18;;;;;;;16.17;10.40;;;;;;;;;;5058697;28;20034;-84
2023/10/25 07:21:43;;;;;;;17.47;9.93;;;;;;;;;;5076460;28;20031;-84
2023/10/25 07:24:08;;;;;;;14.27;9.20;;;;;;;;;;5058736;28;20025;-84
2023/10/25 07:26:33;;;;;;;12.50;8.35;;;;;;;;;;5058569;28;20031;-85
2023/10/25 07:28:59;;;;;;;12.33;8.90;;;;;;;;;;5058625;28;20032;-84
2023/10/25 07:31:24;;;;;;;13.43;8.00;;;;;;;;;;5058735;28;20246;-84
2023/10/25 07:33:49;;;;;;;14.37;8.17;;;;;;;;;;5058764;28;20028;-84
2023/10/25 07:36:14;;;;;;;13.60;9.03;;;;;;;;;;5058409;28;20013;-84
2023/10/25 07:38:39;;;;;;;14.73;8.70;;;;;;;;;;5076513;28;20063;-84
2023/10/25 07:41:05;;;;;;;14.43;8.03;;;;;;;;;;5076327;28;20070;-83
2023/10/25 07:43:30;;;;;;;13.50;7.73;;;;;;;;;;5076827;28;20253;-84
2023/10/25 07:45:55;;;;;;;13.25;8.27;;;;;;;;;;5058334;28;20024;-84
2023/10/25 07:48:21;;;;;;;13.03;8.10;;;;;;;;;;5076132;28;20021;-84
2023/10/25 07:50:46;;;;;;;12.90;7.93;;;;;;;;;;5057273;28;20464;-84
2023/10/25 07:53:11;;;;;;;11.03;7.43;;;;;;;;;;5057931;28;20016;-84
2023/10/25 07:55:40;;;;;;;14.30;7.33;;;;;;;;;;5076296;28;20272;-84
2023/10/25 07:58:05;;;;;;;14.65;7.28;;;;;;;;;;5076126;28;20256;-84
2023/10/25 08:00:30;;;;;;;9.40;6.03;;;;;;;;;;5076023;28;20044;-84
2023/10/25 08:02:55;;;;;;;14.83;6.27;;;;;;;;;;5057966;28;20663;-85
2023/10/25 08:05:20;;;;;;;11.63;6.20;;;;;;;;;;5058098;28;20764;-84
2023/10/25 08:07:47;;;;;;;11.20;6.40;;;;;;;;;;5075885;28;20722;-85
2023/10/25 08:10:12;;;;;;;11.23;6.13;;;;;;;;;;5057845;28;20103;-85
2023/10/25 08:12:38;;;;;;;9.88;6.22;;;;;;;;;;5076152;28;20473;-85
2023/10/25 08:15:04;;;;;;;12.83;5.97;;;;;;;;;;5057980;28;20017;-85
2023/10/25 08:17:29;;;;;;;8.85;5.88;;;;;;;;;;5057669;28;20021;-84
2023/10/25 08:19:55;;;;;;;10.53;5.70;;;;;;;;;;5075824;28;20027;-84
2023/10/25 08:22:20;;;;;;;7.43;5.47;;;;;;;;;;5075460;28;20037;-84
2023/10/25 08:24:46;;;;;;;8.88;5.57;;;;;;;;;;5057649;28;20017;-84
2023/10/25 08:27:11;;;;;;;7.85;5.15;;;;;;;;;;5057311;28;20112;-84
2023/10/25 08:29:36;;;;;;;9.40;5.23;;;;;;;;;;5057273;28;20024;-84
2023/10/25 08:32:01;;;;;;;8.60;5.43;;;;;;;;;;5075539;28;20029;-84
2023/10/25 08:34:27;;;;;;;7.43;5.03;;;;;;;;;;5075171;28;20245;-84
2023/10/25 08:36:54;;;;;;;9.43;4.73;;;;;;;;;;5057466;28;20261;-84
2023/10/25 08:39:21;;;;;;;8.23;5.25;;;;;;;;;;5075156;28;20016;-84
2023/10/25 08:41:47;;;;;;;7.05;4.97;;;;;;;;;;5057277;28;20388;-84
2023/10/25 08:44:12;;;;;;;11.93;5.25;;;;;;;;;;5075133;28;20017;-85
2023/10/25 08:46:40;;;;;;;11.30;4.85;;;;;;;;;;5074904;28;20021;-84
2023/10/25 08:49:05;;;;;;;12.60;5.35;;;;;;;;;;5075343;28;20024;-85
2023/10/25 08:51:30;;;;;;;9.67;4.50;;;;;;;;;;5075169;28;20111;-84
2023/10/25 08:53:58;;;;;;;11.07;4.43;;;;;;;;;;5057323;28;20289;-85
2023/10/25 08:56:25;;;;;;;7.75;4.68;;;;;;;;;;5057634;28;20332;-85
2023/10/25 08:58:50;;;;;;;5.97;4.35;;;;;;;;;;5074823;28;20052;-84
2023/10/25 09:01:16;;;;;;;7.10;4.30;;;;;;;;;;5056660;28;20129;-84
2023/10/25 09:03:41;;;;;;;7.67;4.50;;;;;;;;;;5074237;28;20252;-84
2023/10/25 09:06:07;;;;;;;6.78;4.25;;;;;;;;;;5056401;28;20330;-84
2023/10/25 09:08:33;;;;;;;5.95;4.03;;;;;;;;;;5074602;28;20017;-84
2023/10/25 09:11:02;;;;;;;10.10;3.78;;;;;;;;;;5075035;28;20389;-84
2023/10/25 09:13:28;;;;;;;6.43;3.80;;;;;;;;;;5056714;28;20480;-84
2023/10/25 09:16:03;;;;;;;7.13;4.03;;;;;;;;;;5074971;28;20032;-85
2023/10/25 09:18:29;;;;;;;6.32;3.80;;;;;;;;;;5074701;28;20104;-84
2023/10/25 09:20:54;;;;;;;8.50;3.75;;;;;;;;;;5074583;28;20538;-84
2023/10/25 09:23:20;;;;;;;5.70;3.53;;;;;;;;;;5056702;28;20044;-84
2023/10/25 09:25:45;;;;;;;7.65;4.18;;;;;;;;;;5074447;28;20284;-85
2023/10/25 09:28:15;;;;;;;7.53;3.13;;;;;;;;;;5056680;28;20019;-84
2023/10/25 09:30:41;;;;;;;9.50;3.60;;;;;;;;;;5056557;28;20070;-84
2023/10/25 09:33:06;;;;;;;5.10;3.10;;;;;;;;;;5074479;28;20024;-85
2023/10/25 09:35:31;;;;;;;5.83;3.23;;;;;;;;;;5074317;28;20320;-84
2023/10/25 09:37:56;;;;;;;5.50;3.13;;;;;;;;;;5074599;28;20464;-84
2023/10/25 09:40:22;;;;;;;5.68;3.45;;;;;;;;;;5056329;28;20020;-84
2023/10/25 09:42:49;;;;;;;4.82;2.90;;;;;;;;;;5074121;28;20027;-84
2023/10/25 09:45:17;;;;;;;4.80;3.00;;;;;;;;;;5056111;28;20016;-84
2023/10/25 09:47:43;;;;;;;4.22;2.63;;;;;;;;;;5055848;28;20017;-85
2023/10/25 09:50:31;;;;;;;5.38;2.63;;;;;;;;;;5073910;28;20012;-85
2023/10/25 09:53:00;;;;;;;4.72;2.85;;;;;;;;;;5055594;28;20016;-84
2023/10/25 09:55:29;;;;;;;4.97;2.67;;;;;;;;;;5073675;28;20549;-84
2023/10/25 09:57:55;;;;;;;4.53;3.22;;;;;;;;;;5056089;28;20499;-84
2023/10/25 10:00:21;;;;;;;3.25;2.33;;;;;;;;;;5056121;28;20024;-84
2023/10/25 10:02:54;;;;;;;4.03;2.40;;;;;;;;;;5056025;28;20023;-85
2023/10/25 10:05:27;;;;;;;6.13;2.40;;;;;;;;;;5056017;28;20515;-84
2023/10/25 10:08:11;;;;;;;6.25;2.42;;;;;;;;;;5056067;28;20044;-85
2023/10/25 10:10:43;;;;;;;7.40;3.40;;;;;;;;;;5056233;28;20064;-84
2023/10/25 10:13:15;;;;;;;4.05;2.90;;;;;;;;;;5073566;28;20043;-85
2023/10/25 10:16:00;;;;;;;4.47;2.80;;;;;;;;;;5056105;28;20024;-85
2023/10/25 10:18:31;;;;;;;7.38;3.22;;;;;;;;;;5074014;28;20090;-85
2023/10/25 10:21:03;;;;;;;6.35;3.13;;;;;;;;;;5073921;28;20476;-85
2023/10/25 10:23:38;;;;;;;10.38;3.70;;;;;;;;;;5073708;28;20040;-85
2023/10/25 10:26:04;;;;;;;5.18;3.58;;;;;;;;;;5056028;28;20035;-85
2023/10/25 10:28:39;;;;;;;7.65;3.90;;;;;;;;;;5056200;28;20012;-85
2023/10/25 10:31:05;;;;;;;6.88;4.22;;;;;;;;;;5074050;28;20020;-85
2023/10/25 10:33:33;;;;;;;4.93;3.35;;;;;;;;;;5074029;28;20017;-85
2023/10/25 10:36:01;;;;;;;6.55;3.70;;;;;;;;;;5055778;28;20389;-85
2023/10/25 10:38:27;;;;;;;5.40;3.75;;;;;;;;;;5056031;28;20027;-85
2023/10/25 10:41:00;;;;;;;7.65;3.70;;;;;;;;;;5073823;28;20388;-85
2023/10/25 10:43:26;;;;;;;6.80;3.78;;;;;;;;;;5073753;28;20039;-85
2023/10/25 10:45:52;;;;;;;5.43;3.50;;;;;;;;;;5055912;28;20103;-85
2023/10/25 10:48:20;;;;;;;7.47;3.53;;;;;;;;;;5073705;28;20066;-85
2023/10/25 10:50:47;;;;;;;6.93;3.92;;;;;;;;;;5073675;28;20019;-85
2023/10/25 10:53:12;;;;;;;4.88;3.35;;;;;;;;;;5055704;28;20028;-85
2023/10/25 10:55:40;;;;;;;5.00;3.70;;;;;;;;;;5073655;28;20024;-85
2023/10/25 10:58:05;;;;;;;4.35;3.22;;;;;;;;;;5073507;28;20134;-85
2023/10/25 11:00:31;;;;;;;4.95;3.35;;;;;;;;;;5073297;28;20038;-85
2023/10/25 11:02:56;;;;;;;3.53;2.88;;;;;;;;;;5073315;28;20024;-85
2023/10/25 11:05:24;;;;;;;12.65;3.50;;;;;;;;;;5073592;28;20443;-85
2023/10/25 11:07:50;;;;;;;5.82;3.25;;;;;;;;;;5055798;28;20016;-85
2023/10/25 11:10:15;;;;;;;7.63;3.70;;;;;;;;;;5073695;28;20157;-85
2023/10/25 11:12:41;;;;;;;9.95;3.88;;;;;;;;;;5055654;28;20614;-85
2023/10/25 11:15:06;;;;;;;6.68;3.72;;;;;;;;;;5055657;28;20021;-85
2023/10/25 11:17:32;;;;;;;4.95;3.38;;;;;;;;;;5055785;28;20487;-85
2023/10/25 11:19:59;;;;;;;6.18;3.17;;;;;;;;;;5055590;28;20027;-85
2023/10/25 11:22:24;;;;;;;6.85;3.38;;;;;;;;;;5055237;28;20045;-86
2023/10/25 11:24:54;;;;;;;4.80;3.10;;;;;;;;;;5055591;28;20025;-85
2023/10/25 11:27:19;;;;;;;9.25;3.75;;;;;;;;;;5077138;28;20273;-85
2023/10/25 11:29:45;;;;;;;5.25;2.95;;;;;;;;;;5058963;28;20550;-85
2023/10/25 11:32:14;;;;;;;6.20;3.33;;;;;;;;;;5059157;28;20023;-85
2023/10/25 11:34:41;;;;;;;4.88;3.30;;;;;;;;;;5059110;28;20054;-85
2023/10/25 11:37:07;;;;;;;4.03;2.80;;;;;;;;;;5076815;28;20095;-85
2023/10/25 11:39:35;;;;;;;5.00;3.03;;;;;;;;;;5076314;28;20048;-85
2023/10/25 11:42:00;;;;;;;6.57;3.10;;;;;;;;;;5076398;28;20019;-85
2023/10/25 11:44:27;;;;;;;4.97;3.10;;;;;;;;;;5058894;28;20020;-86
2023/10/25 11:46:55;;;;;;;5.68;3.13;;;;;;;;;;5058774;28;20170;-86
2023/10/25 11:49:20;;;;;;;10.25;2.97;;;;;;;;;;5076702;28;20092;-85
2023/10/25 11:51:46;;;;;;;6.97;2.58;;;;;;;;;;5058673;28;20492;-86
2023/10/25 11:54:11;;;;;;;6.65;3.05;;;;;;;;;;5058798;28;20017;-85
2023/10/25 11:56:37;;;;;;;7.72;2.80;;;;;;;;;;5058519;28;20047;-85
2023/10/25 11:59:02;;;;;;;3.95;2.53;;;;;;;;;;5058459;28;20021;-85
2023/10/25 12:01:27;;;;;;;4.20;2.40;;;;;;;;;;5058364;28;20468;-85
2023/10/25 12:03:52;;;;;;;7.82;2.22;;;;;;;;;;5076558;28;20025;-85
2023/10/25 12:06:19;;;;;;;4.43;2.40;;;;;;;;;;5058318;28;20107;-86
2023/10/25 12:08:44;;;;;;;5.15;2.53;;;;;;;;;;5058467;28;20017;-85
2023/10/25 12:11:10;;;;;;;2.70;1.97;;;;;;;;;;5076327;28;20024;-85
2023/10/25 12:13:36;;;;;;;3.17;2.28;;;;;;;;;;5058403;28;20024;-85
2023/10/25 12:16:01;;;;;;;3.67;2.25;;;;;;;;;;5057918;28;20029;-86
2023/10/25 12:18:26;;;;;;;4.03;1.63;;;;;;;;;;5075929;28;20162;-85
2023/10/25 12:20:52;;;;;;;2.72;1.90;;;;;;;;;;5058254;28;20295;-85
2023/10/25 12:23:17;;;;;;;2.53;1.67;;;;;;;;;;5076238;28;20045;-85
2023/10/25 12:25:42;;;;;;;2.80;1.63;;;;;;;;;;5058035;28;20277;-86
2023/10/25 12:28:07;;;;;;;1.77;1.23;;;;;;;;;;5075971;28;20384;-86
2023/10/25 12:30:32;;;;;;;4.67;1.50;;;;;;;;;;5076431;28;20027;-85
2023/10/25 12:32:58;;;;;;;4.50;1.80;;;;;;;;;;5076002;28;20241;-86
2023/10/25 12:35:23;;;;;;;3.00;1.37;;;;;;;;;;5075626;28;20028;-86
2023/10/25 12:37:48;;;;;;;3.27;1.40;;;;;;;;;;5057551;28;20249;-86
2023/10/25 12:40:13;;;;;;;1.50;1.20;;;;;;;;;;5057837;28;20256;-85
2023/10/25 12:42:38;;;;;;;1.63;1.13;;;;;;;;;;5057642;28;20264;-85
2023/10/25 12:45:04;;;;;;;5.37;1.20;;;;;;;;;;5057475;28;20016;-85
2023/10/25 12:47:29;;;;;;;2.63;1.05;;;;;;;;;;5057434;28;20292;-85
2023/10/25 12:49:55;;;;;;;2.10;0.90;;;;;;;;;;5075263;28;20028;-85
2023/10/25 12:52:20;;;;;;;1.42;0.80;;;;;;;;;;5074765;28;20016;-85
2023/10/25 12:54:45;;;;;;;2.93;1.03;;;;;;;;;;5057264;28;20025;-85
2023/10/25 12:57:10;;;;;;;2.33;1.15;;;;;;;;;;5075365;28;20257;-85
2023/10/25 12:59:35;;;;;;;2.72;1.05;;;;;;;;;;5075182;28;20044;-85
2023/10/25 13:02:01;;;;;;;2.57;0.90;;;;;;;;;;5075326;28;20029;-85
2023/10/25 13:04:26;;;;;;;1.80;1.02;;;;;;;;;;5057364;28;20306;-85
2023/10/25 13:06:51;;;;;;;1.87;0.97;;;;;;;;;;5074859;28;20020;-85
2023/10/25 13:09:17;;;;;;;2.65;0.85;;;;;;;;;;5057385;28;20017;-85
2023/10/25 13:11:42;;;;;;;1.85;0.93;;;;;;;;;;5057006;28;20012;-86
2023/10/25 13:14:08;;;;;;;3.47;1.00;;;;;;;;;;5057157;28;20107;-85
2023/10/25 13:16:33;;;;;;;1.23;0.70;;;;;;;;;;5056983;28;20154;-85
2023/10/25 13:19:00;;;;;;;2.47;1.00;;;;;;;;;;5075076;28;20020;-85
2023/10/25 13:21:25;;;;;;;3.55;1.15;;;;;;;;;;5056647;28;20249;-85
2023/10/25 13:23:50;;;;;;;3.37;1.10;;;;;;;;;;5056854;28;20143;-85
2023/10/25 13:26:16;;;;;;;3.28;1.02;;;;;;;;;;5056491;28;20050;-85
2023/10/25 13:28:41;;;;;;;3.55;0.90;;;;;;;;;;5056071;28;20387;-85
2023/10/25 13:31:07;;;;;;;2.03;0.75;;;;;;;;;;5056885;28;20013;-85
2023/10/25 13:33:32;;;;;;;1.13;0.80;;;;;;;;;;5056996;28;20055;-86
2023/10/25 13:35:58;;;;;;;1.37;1.00;;;;;;;;;;5056638;28;20277;-85
2023/10/25 13:38:23;;;;;;;1.42;0.90;;;;;;;;;;5074473;28;20273;-85
2023/10/25 13:40:49;;;;;;;1.30;1.03;;;;;;;;;;5056749;28;20115;-85
2023/10/25 13:43:15;;;;;;;4.15;0.93;;;;;;;;;;5074422;28;20249;-85
2023/10/25 13:45:41;;;;;;;6.18;1.10;;;;;;;;;;5074340;28;20016;-85
2023/10/25 13:48:06;;;;;;;1.48;0.80;;;;;;;;;;5073860;28;20073;-85
2023/10/25 13:50:31;;;;;;;2.05;0.90;;;;;;;;;;5056370;28;20097;-85
2023/10/25 13:52:56;;;;;;;2.00;0.80;;;;;;;;;;5056283;28;20020;-86
2023/10/25 13:55:22;;;;;;;2.77;1.00;;;;;;;;;;5074560;28;20535;-85
2023/10/25 13:57:47;;;;;;;2.17;1.00;;;;;;;;;;5074232;28;20096;-85
2023/10/25 14:00:13;;;;;;;3.67;1.00;;;;;;;;;;5056360;28;20051;-85
2023/10/25 14:02:40;;;;;;;3.28;1.33;;;;;;;;;;5055750;28;20044;-85
2023/10/25 14:05:05;;;;;;;1.15;0.80;;;;;;;;;;5073643;28;20078;-85
2023/10/25 14:07:30;;;;;;;2.40;0.85;;;;;;;;;;5055984;28;20025;-85
2023/10/25 14:09:56;;;;;;;3.23;1.00;;;;;;;;;;5074077;28;20468;-85
2023/10/25 14:12:21;;;;;;;1.77;0.70;;;;;;;;;;5056240;28;20024;-85
2023/10/25 14:14:46;;;;;;;2.55;0.82;;;;;;;;;;5074025;28;20241;-85
2023/10/25 14:17:12;;;;;;;3.70;0.83;;;;;;;;;;5074163;28;20058;-85
2023/10/25 14:19:37;;;;;;;2.00;0.60;;;;;;;;;;5055862;28;20075;-85
2023/10/25 14:22:02;;;;;;;1.23;0.77;;;;;;;;;;5073811;28;20041;-85
2023/10/25 14:24:27;;;;;;;0.60;0.40;;;;;;;;;;5073951;28;20021;-85
2023/10/25 14:26:53;;;;;;;0.82;0.40;;;;;;;;;;5055756;28;20376;-86
2023/10/25 14:29:18;;;;;;;0.40;0.20;;;;;;;;;;5072356;28;20477;-85
2023/10/25 14:31:43;;;;;;;0.53;0.43;;;;;;;;;;5054819;28;20621;-82